Time;durP1;ratioP1;P1;durP2;ratioP2;P2;SDS_P1;SDS_P2;PMS_P1;PMS_P2;Temp;Humidity;BMP_temperature;BMP_pressure;BME280_temperature;BME280_humidity;BME280_pressure;Samples;Min_cycle;Max_cycle;Signal;HPM_P1;HPM_P2
2022/06/30 00:01:37;;;;;;;5.70;2.08;;;;;;;;;;6258412;28;20319;-70
2022/06/30 00:04:39;;;;;;;6.07;2.50;;;;;;;;;;6254770;28;20055;-70
2022/06/30 00:07:42;;;;;;;5.07;2.50;;;;;;;;;;6256986;28;20065;-70
2022/06/30 00:10:44;;;;;;;5.90;2.75;;;;;;;;;;6254723;28;20045;-70
2022/06/30 00:13:46;;;;;;;7.65;2.45;;;;;;;;;;6258123;28;20368;-70
2022/06/30 00:16:49;;;;;;;4.82;2.30;;;;;;;;;;6259567;28;20049;-69
2022/06/30 00:19:51;;;;;;;8.30;2.30;;;;;;;;;;6255915;28;20045;-70
2022/06/30 00:22:52;;;;;;;5.50;2.45;;;;;;;;;;6252782;28;20056;-71
2022/06/30 00:25:54;;;;;;;4.97;2.30;;;;;;;;;;6256318;28;20419;-69
2022/06/30 00:28:56;;;;;;;6.95;3.10;;;;;;;;;;6253199;28;20052;-69
2022/06/30 00:31:59;;;;;;;6.53;2.55;;;;;;;;;;6255662;28;20099;-69
2022/06/30 00:35:01;;;;;;;7.60;3.03;;;;;;;;;;6259506;28;20049;-71
2022/06/30 00:38:04;;;;;;;5.60;2.60;;;;;;;;;;6259571;28;20056;-69
2022/06/30 00:41:05;;;;;;;7.05;2.67;;;;;;;;;;6254178;28;20049;-69
2022/06/30 00:44:07;;;;;;;8.23;3.42;;;;;;;;;;6258047;28;20049;-70
2022/06/30 00:47:11;;;;;;;10.13;2.70;;;;;;;;;;6255481;28;20054;-70
2022/06/30 00:50:12;;;;;;;;;;;;;;;;;;6258429;28;20061;-70
2022/06/30 00:53:14;;;;;;;10.05;2.83;;;;;;;;;;6256160;28;19924;-70
2022/06/30 00:56:18;;;;;;;7.63;2.77;;;;;;;;;;6260414;28;20049;-69
2022/06/30 00:59:20;;;;;;;6.82;2.92;;;;;;;;;;6257300;28;20278;-71
2022/06/30 01:02:23;;;;;;;4.28;2.40;;;;;;;;;;6257513;28;20084;-70
2022/06/30 01:05:26;;;;;;;5.00;2.65;;;;;;;;;;6261587;28;20275;-69
2022/06/30 01:08:29;;;;;;;7.73;2.90;;;;;;;;;;6254685;28;20081;-70
2022/06/30 01:14:51;;;;;;;6.90;2.72;;;;;;;;;;6260030;28;20045;-69
2022/06/30 01:17:54;;;;;;;8.10;2.63;;;;;;;;;;6258378;28;20056;-69
2022/06/30 01:20:56;;;;;;;;;;;;;;;;;;6256291;28;20052;-70
2022/06/30 01:23:59;;;;;;;6.75;2.80;;;;;;;;;;6256704;28;19924;-70
2022/06/30 01:27:01;;;;;;;4.97;2.50;;;;;;;;;;6256907;28;20255;-70
2022/06/30 01:30:03;;;;;;;6.88;3.20;;;;;;;;;;6261708;28;20045;-70
2022/06/30 01:33:05;;;;;;;7.47;2.97;;;;;;;;;;6253558;28;20037;-70
2022/06/30 01:36:07;;;;;;;9.02;2.95;;;;;;;;;;6257943;28;20064;-70
2022/06/30 01:39:10;;;;;;;8.85;2.83;;;;;;;;;;6259230;28;20103;-71
2022/06/30 01:42:12;;;;;;;6.07;2.63;;;;;;;;;;6256097;28;20062;-71
2022/06/30 01:45:14;;;;;;;7.70;2.80;;;;;;;;;;6256029;28;20057;-69
2022/06/30 01:48:16;;;;;;;7.25;2.78;;;;;;;;;;6262525;28;20048;-70
2022/06/30 01:51:17;;;;;;;5.97;2.38;;;;;;;;;;6258633;28;20049;-70
2022/06/30 01:54:20;;;;;;;5.60;3.03;;;;;;;;;;6250333;28;20356;-70
2022/06/30 01:57:22;;;;;;;8.35;2.97;;;;;;;;;;6257836;28;20106;-69
2022/06/30 02:00:25;;;;;;;5.80;3.08;;;;;;;;;;6254427;28;20442;-70
2022/06/30 02:03:26;;;;;;;8.10;2.75;;;;;;;;;;6263520;28;20287;-70
2022/06/30 02:06:28;;;;;;;7.15;2.72;;;;;;;;;;6256461;28;20053;-70
2022/06/30 02:09:31;;;;;;;7.32;2.70;;;;;;;;;;6257018;28;20099;-69
2022/06/30 02:12:48;;;;;;;6.05;2.50;;;;;;;;;;6255585;28;20049;-70
2022/06/30 02:15:50;;;;;;;9.38;2.70;;;;;;;;;;6253964;28;20053;-69
2022/06/30 02:18:53;;;;;;;7.22;2.85;;;;;;;;;;6255181;28;20056;-69
2022/06/30 02:21:54;;;;;;;4.22;2.38;;;;;;;;;;6256219;28;20049;-70
2022/06/30 02:24:58;;;;;;;11.27;2.88;;;;;;;;;;6261703;28;20049;-68
2022/06/30 02:28:01;;;;;;;7.90;2.75;;;;;;;;;;6259452;28;20121;-70
2022/06/30 02:31:04;;;;;;;7.63;2.70;;;;;;;;;;6250070;28;20052;-70
2022/06/30 02:34:06;;;;;;;9.02;3.08;;;;;;;;;;6253187;28;20050;-70
2022/06/30 02:37:08;;;;;;;6.93;2.40;;;;;;;;;;6254740;28;20057;-70
2022/06/30 02:40:12;;;;;;;7.23;2.80;;;;;;;;;;6254643;28;20045;-70
2022/06/30 02:43:13;;;;;;;5.63;2.50;;;;;;;;;;6262667;28;20044;-70
2022/06/30 02:46:15;;;;;;;8.43;2.63;;;;;;;;;;6253206;28;20078;-70
2022/06/30 02:49:17;;;;;;;4.47;2.50;;;;;;;;;;6259740;28;20048;-70
2022/06/30 02:52:19;;;;;;;8.77;2.47;;;;;;;;;;6251903;28;20053;-70
2022/06/30 02:55:22;;;;;;;4.65;2.42;;;;;;;;;;6254517;28;20474;-71
2022/06/30 02:58:24;;;;;;;;;;;;;;;;;;6256040;28;20092;-70
2022/06/30 03:01:25;;;;;;;7.75;2.55;;;;;;;;;;6257510;28;20088;-70
2022/06/30 03:04:27;;;;;;;7.88;2.85;;;;;;;;;;6259970;28;20058;-69
2022/06/30 03:07:29;;;;;;;5.60;2.95;;;;;;;;;;6261258;28;20370;-69
2022/06/30 03:10:32;;;;;;;8.60;2.63;;;;;;;;;;6255368;28;20340;-70
2022/06/30 03:13:33;;;;;;;6.10;2.60;;;;;;;;;;6262066;28;20056;-69
2022/06/30 03:16:35;;;;;;;7.82;2.90;;;;;;;;;;6257868;28;20061;-68
2022/06/30 03:19:37;;;;;;;5.90;2.72;;;;;;;;;;6254806;28;20060;-70
2022/06/30 03:22:38;;;;;;;7.05;3.00;;;;;;;;;;6262508;28;20045;-70
2022/06/30 03:25:41;;;;;;;5.53;2.67;;;;;;;;;;6260665;28;20332;-70
2022/06/30 03:28:43;;;;;;;4.90;2.65;;;;;;;;;;6259624;28;20045;-70
2022/06/30 03:31:45;;;;;;;6.30;2.65;;;;;;;;;;6255638;28;20077;-70
2022/06/30 03:34:46;;;;;;;8.93;3.92;;;;;;;;;;6264823;28;20111;-70
2022/06/30 03:37:48;;;;;;;6.15;2.83;;;;;;;;;;6258401;28;20052;-69
2022/06/30 03:40:51;;;;;;;8.20;2.60;;;;;;;;;;6258145;28;20318;-70
2022/06/30 03:43:53;;;;;;;6.57;2.60;;;;;;;;;;6263489;28;20051;-70
2022/06/30 03:46:56;;;;;;;7.10;2.90;;;;;;;;;;6257055;28;20087;-70
2022/06/30 03:49:58;;;;;;;5.20;2.67;;;;;;;;;;6258537;28;20053;-69
2022/06/30 03:53:00;;;;;;;4.75;2.33;;;;;;;;;;6262604;28;20044;-70
2022/06/30 03:56:04;;;;;;;6.90;2.90;;;;;;;;;;6258509;28;20053;-69
2022/06/30 03:59:05;;;;;;;10.05;3.22;;;;;;;;;;6258812;28;20073;-70
2022/06/30 04:02:07;;;;;;;5.25;2.50;;;;;;;;;;6256290;28;20057;-69
2022/06/30 04:05:09;;;;;;;5.40;2.55;;;;;;;;;;6263741;28;20053;-69
2022/06/30 04:08:11;;;;;;;5.53;2.70;;;;;;;;;;6256853;28;20107;-71
2022/06/30 04:11:14;;;;;;;7.20;3.38;;;;;;;;;;6259365;28;20325;-69
2022/06/30 04:14:15;;;;;;;7.15;2.80;;;;;;;;;;6255861;28;20056;-69
2022/06/30 04:17:17;;;;;;;8.98;3.00;;;;;;;;;;6258869;28;20060;-69
2022/06/30 04:20:19;;;;;;;4.75;2.50;;;;;;;;;;6259305;28;20049;-69
2022/06/30 04:23:20;;;;;;;5.82;2.80;;;;;;;;;;6257599;28;20098;-69
2022/06/30 04:26:23;;;;;;;5.45;2.50;;;;;;;;;;6262731;28;20056;-71
2022/06/30 04:29:25;;;;;;;4.35;2.45;;;;;;;;;;6256388;28;20045;-70
2022/06/30 04:32:38;;;;;;;5.65;2.70;;;;;;;;;;6256594;28;20059;-70
2022/06/30 04:35:39;;;;;;;5.43;2.70;;;;;;;;;;6259268;28;20236;-70
2022/06/30 04:38:41;;;;;;;7.30;2.67;;;;;;;;;;6258562;28;20057;-69
2022/06/30 04:41:44;;;;;;;8.80;2.60;;;;;;;;;;6259831;28;20045;-70
2022/06/30 04:44:46;;;;;;;6.10;2.78;;;;;;;;;;6258277;28;20123;-69
2022/06/30 04:47:48;;;;;;;6.95;2.30;;;;;;;;;;6264566;28;20054;-70
2022/06/30 04:50:50;;;;;;;5.22;2.78;;;;;;;;;;6258099;28;20052;-70
2022/06/30 04:53:52;;;;;;;6.72;2.72;;;;;;;;;;6258207;28;20056;-68
2022/06/30 04:56:55;;;;;;;7.33;2.60;;;;;;;;;;6258334;28;20055;-70
2022/06/30 04:59:57;;;;;;;8.60;3.15;;;;;;;;;;6260541;28;20056;-70
2022/06/30 05:02:58;;;;;;;5.20;2.80;;;;;;;;;;6259638;28;20057;-71
2022/06/30 05:06:00;;;;;;;5.22;2.53;;;;;;;;;;6252448;28;20088;-70
2022/06/30 05:09:02;;;;;;;5.03;2.80;;;;;;;;;;6256921;28;20050;-69
2022/06/30 05:12:06;;;;;;;7.50;3.17;;;;;;;;;;6257771;28;20049;-69
2022/06/30 05:15:09;;;;;;;6.75;3.08;;;;;;;;;;6264917;28;20340;-70
2022/06/30 05:18:11;;;;;;;6.23;2.90;;;;;;;;;;6261438;28;20049;-70
2022/06/30 05:21:12;;;;;;;6.25;3.15;;;;;;;;;;6259087;28;20455;-69
2022/06/30 05:27:31;;;;;;;5.80;2.60;;;;;;;;;;6255655;28;20166;-69
2022/06/30 05:30:32;;;;;;;5.53;2.53;;;;;;;;;;6252589;28;20049;-70
2022/06/30 05:33:34;;;;;;;6.22;2.85;;;;;;;;;;6262117;28;20049;-69
2022/06/30 05:36:36;;;;;;;8.07;2.80;;;;;;;;;;6259680;28;20084;-69
2022/06/30 05:39:37;;;;;;;6.65;2.78;;;;;;;;;;6256795;28;20044;-69
2022/06/30 05:42:40;;;;;;;6.78;2.83;;;;;;;;;;6254960;28;20052;-69
2022/06/30 05:45:42;;;;;;;;;;;;;;;;;;6258435;28;20057;-72
2022/06/30 05:48:44;;;;;;;7.43;2.67;;;;;;;;;;6255390;28;19936;-70
2022/06/30 05:51:45;;;;;;;8.10;2.72;;;;;;;;;;6259626;28;20062;-71
2022/06/30 05:54:47;;;;;;;8.40;3.10;;;;;;;;;;6257860;28;20356;-69
2022/06/30 05:57:52;;;;;;;5.50;3.08;;;;;;;;;;6261019;28;20092;-69
2022/06/30 06:00:54;;;;;;;7.95;3.10;;;;;;;;;;6252066;28;20214;-69
2022/06/30 06:03:55;;;;;;;5.80;2.50;;;;;;;;;;6258648;28;20052;-70
2022/06/30 06:06:57;;;;;;;5.75;2.80;;;;;;;;;;6253664;28;20057;-69
2022/06/30 06:09:59;;;;;;;6.22;2.63;;;;;;;;;;6257562;28;20053;-69
2022/06/30 06:13:02;;;;;;;8.52;3.20;;;;;;;;;;6255638;28;20299;-69
2022/06/30 06:16:04;;;;;;;9.57;3.97;;;;;;;;;;6261433;28;20056;-69
2022/06/30 06:19:05;;;;;;;6.25;2.90;;;;;;;;;;6251432;28;20046;-70
2022/06/30 06:22:07;;;;;;;8.70;3.03;;;;;;;;;;6254207;28;20056;-69
2022/06/30 06:25:09;;;;;;;7.13;2.63;;;;;;;;;;6262129;28;20049;-69
2022/06/30 06:31:32;;;;;;;4.18;2.60;;;;;;;;;;6253569;28;20100;-69
2022/06/30 06:34:34;;;;;;;7.22;2.80;;;;;;;;;;6256534;28;20125;-69
2022/06/30 06:37:35;;;;;;;5.47;3.03;;;;;;;;;;6259895;28;20041;-69
2022/06/30 06:40:37;;;;;;;4.22;2.72;;;;;;;;;;6257351;28;20297;-69
2022/06/30 06:43:40;;;;;;;6.00;3.05;;;;;;;;;;6269057;28;20052;-69
2022/06/30 06:46:42;;;;;;;7.05;3.03;;;;;;;;;;6258202;28;20061;-68
2022/06/30 06:49:44;;;;;;;6.28;3.50;;;;;;;;;;6257747;28;20045;-70
2022/06/30 06:52:46;;;;;;;4.57;2.40;;;;;;;;;;6258159;28;20041;-69
2022/06/30 06:55:47;;;;;;;5.43;2.78;;;;;;;;;;6268832;28;20049;-70
2022/06/30 06:58:50;;;;;;;3.80;2.47;;;;;;;;;;6260134;28;20040;-69
2022/06/30 07:01:52;;;;;;;7.93;3.10;;;;;;;;;;6262571;28;20060;-69
2022/06/30 07:04:54;;;;;;;7.40;3.10;;;;;;;;;;6261021;28;20057;-69
2022/06/30 07:07:59;;;;;;;10.48;3.60;;;;;;;;;;6265015;28;20057;-68
2022/06/30 07:11:03;;;;;;;6.55;2.97;;;;;;;;;;6260957;28;20056;-69
2022/06/30 07:14:06;;;;;;;7.20;2.60;;;;;;;;;;6260039;28;20240;-69
2022/06/30 07:17:08;;;;;;;5.45;2.47;;;;;;;;;;6258994;28;20054;-69
2022/06/30 07:20:10;;;;;;;4.75;2.47;;;;;;;;;;6261615;28;20051;-69
2022/06/30 07:23:12;;;;;;;6.88;3.15;;;;;;;;;;6264340;28;20045;-69
2022/06/30 07:26:14;;;;;;;10.57;2.90;;;;;;;;;;6261086;28;20053;-70
2022/06/30 07:29:17;;;;;;;4.07;2.35;;;;;;;;;;6263256;28;20106;-69
2022/06/30 07:32:18;;;;;;;;;;;;;;;;;;6262344;28;20279;-70
2022/06/30 07:35:20;;;;;;;6.07;2.10;;;;;;;;;;6262251;28;19925;-69
2022/06/30 07:38:22;;;;;;;6.47;2.42;;;;;;;;;;6261723;28;20343;-69
2022/06/30 07:41:24;;;;;;;8.10;2.42;;;;;;;;;;6264909;28;20367;-69
2022/06/30 07:44:27;;;;;;;5.10;2.33;;;;;;;;;;6260573;28;20045;-69
2022/06/30 07:47:29;;;;;;;19.02;3.40;;;;;;;;;;6265123;28;20056;-69
2022/06/30 07:50:31;;;;;;;7.15;2.55;;;;;;;;;;6258347;28;20116;-70
2022/06/30 07:53:33;;;;;;;6.03;2.50;;;;;;;;;;6259764;28;20058;-70
2022/06/30 07:56:34;;;;;;;3.73;2.40;;;;;;;;;;6259644;28;20068;-70
2022/06/30 07:59:37;;;;;;;4.70;2.30;;;;;;;;;;6263732;28;20257;-69
2022/06/30 08:02:39;;;;;;;8.75;2.28;;;;;;;;;;6261338;28;20076;-70
2022/06/30 08:05:41;;;;;;;6.20;2.88;;;;;;;;;;6264474;28;20558;-69
2022/06/30 08:08:43;;;;;;;8.30;2.90;;;;;;;;;;6259289;28;20390;-70
2022/06/30 08:11:44;;;;;;;7.07;2.40;;;;;;;;;;6263505;28;20240;-70
2022/06/30 08:14:48;;;;;;;6.40;2.60;;;;;;;;;;6260427;28;20272;-70
2022/06/30 08:17:49;;;;;;;8.68;2.67;;;;;;;;;;6256944;28;20111;-69
2022/06/30 08:20:51;;;;;;;3.72;2.10;;;;;;;;;;6257962;28;20332;-70
2022/06/30 08:23:53;;;;;;;7.93;2.60;;;;;;;;;;6267180;28;20226;-70
2022/06/30 08:26:55;;;;;;;6.40;2.70;;;;;;;;;;6260302;28;20137;-70
2022/06/30 08:29:58;;;;;;;6.70;2.25;;;;;;;;;;6256603;28;20099;-70
2022/06/30 08:32:59;;;;;;;4.35;2.50;;;;;;;;;;6261586;28;20045;-69
2022/06/30 08:36:01;;;;;;;7.30;2.40;;;;;;;;;;6259558;28;20347;-72
2022/06/30 08:39:03;;;;;;;5.00;3.03;;;;;;;;;;6259512;28;20463;-69
2022/06/30 08:42:05;;;;;;;6.47;2.17;;;;;;;;;;6267463;28;20053;-71
2022/06/30 08:45:17;;;;;;;7.05;2.70;;;;;;;;;;6263667;28;20050;-68
2022/06/30 08:48:19;;;;;;;8.45;2.60;;;;;;;;;;6257529;28;20283;-70
2022/06/30 08:51:22;;;;;;;4.93;2.13;;;;;;;;;;6254275;28;20300;-70
2022/06/30 08:54:24;;;;;;;7.82;2.67;;;;;;;;;;6261687;28;20048;-71
2022/06/30 08:57:27;;;;;;;5.40;2.47;;;;;;;;;;6259682;28;20095;-70
2022/06/30 09:00:29;;;;;;;;;;;;;;;;;;6259303;28;20059;-70
2022/06/30 09:03:31;;;;;;;5.20;2.40;;;;;;;;;;6260654;28;20035;-69
2022/06/30 09:06:33;;;;;;;5.25;2.50;;;;;;;;;;6261807;28;20127;-71
2022/06/30 09:09:34;;;;;;;7.95;2.38;;;;;;;;;;6260598;28;20041;-72
2022/06/30 09:12:36;;;;;;;5.97;3.13;;;;;;;;;;6260598;28;20320;-72
2022/06/30 09:15:40;;;;;;;6.75;3.30;;;;;;;;;;6266212;28;20028;-72
2022/06/30 09:18:42;;;;;;;6.90;2.75;;;;;;;;;;6258985;28;20052;-71
2022/06/30 09:21:44;;;;;;;10.52;3.85;;;;;;;;;;6257838;28;20094;-73
2022/06/30 09:24:45;;;;;;;8.73;2.95;;;;;;;;;;6260451;28;20052;-72
2022/06/30 09:27:48;;;;;;;4.60;2.97;;;;;;;;;;6260686;28;20041;-70
2022/06/30 09:30:51;;;;;;;;;;;;;;;;;;6263295;28;20053;-71
2022/06/30 09:33:52;;;;;;;;;;;;;;;;;;6258128;28;19974;-74
2022/06/30 09:36:54;;;;;;;9.70;4.10;;;;;;;;;;6262220;28;19959;-73
2022/06/30 09:39:56;;;;;;;6.28;3.33;;;;;;;;;;6259275;28;20056;-73
2022/06/30 09:42:57;;;;;;;5.82;2.90;;;;;;;;;;6264099;28;20387;-73
2022/06/30 09:46:01;;;;;;;7.78;3.22;;;;;;;;;;6260678;28;20333;-71
2022/06/30 09:49:02;;;;;;;7.03;3.17;;;;;;;;;;6257281;28;20053;-71
2022/06/30 09:52:06;;;;;;;5.88;2.50;;;;;;;;;;6259002;28;20057;-70
2022/06/30 09:55:09;;;;;;;7.45;3.00;;;;;;;;;;6260534;28;20052;-70
2022/06/30 09:58:12;;;;;;;3.28;2.47;;;;;;;;;;6258150;28;20041;-71
2022/06/30 10:01:15;;;;;;;7.55;2.97;;;;;;;;;;6256337;28;20053;-70
2022/06/30 10:04:17;;;;;;;7.03;3.05;;;;;;;;;;6257149;28;20060;-71
2022/06/30 10:07:19;;;;;;;9.95;2.58;;;;;;;;;;6258867;28;20113;-71
2022/06/30 10:10:21;;;;;;;5.53;2.90;;;;;;;;;;6257361;28;20053;-71
2022/06/30 10:13:23;;;;;;;7.70;2.80;;;;;;;;;;6261517;28;20040;-72
2022/06/30 10:16:27;;;;;;;5.47;2.88;;;;;;;;;;6258903;28;20091;-70
2022/06/30 10:19:29;;;;;;;8.15;2.80;;;;;;;;;;6260013;28;20214;-71
2022/06/30 10:22:30;;;;;;;7.90;2.88;;;;;;;;;;6256443;28;20079;-71
2022/06/30 10:25:32;;;;;;;6.25;2.97;;;;;;;;;;6257984;28;20068;-71
2022/06/30 10:28:34;;;;;;;6.85;2.85;;;;;;;;;;6258374;28;20061;-71
2022/06/30 10:31:42;;;;;;;5.65;3.00;;;;;;;;;;6258165;28;20100;-71
2022/06/30 10:34:51;;;;;;;6.32;2.97;;;;;;;;;;6251518;28;20080;-71
2022/06/30 10:37:59;;;;;;;4.57;2.50;;;;;;;;;;6260713;28;20375;-71
2022/06/30 10:41:07;;;;;;;6.55;2.80;;;;;;;;;;6260411;28;20055;-71
2022/06/30 10:44:15;;;;;;;4.82;2.60;;;;;;;;;;6256530;28;20049;-71
2022/06/30 10:47:18;;;;;;;8.32;3.05;;;;;;;;;;6258805;28;20140;-71
2022/06/30 10:50:30;;;;;;;5.45;2.90;;;;;;;;;;6254217;28;20067;-70
2022/06/30 10:53:52;;;;;;;10.50;2.60;;;;;;;;;;6261097;28;20228;-71
2022/06/30 10:56:55;;;;;;;6.55;2.95;;;;;;;;;;6256334;28;20119;-70
2022/06/30 10:59:57;;;;;;;4.78;2.60;;;;;;;;;;6253928;28;20049;-70
2022/06/30 11:03:00;;;;;;;3.50;2.63;;;;;;;;;;6259385;28;20249;-71
2022/06/30 11:06:05;;;;;;;7.10;2.58;;;;;;;;;;6260664;28;20383;-71
2022/06/30 11:09:07;;;;;;;4.93;2.42;;;;;;;;;;6253025;28;20069;-70
2022/06/30 11:12:09;;;;;;;5.20;2.80;;;;;;;;;;6256589;28;20383;-70
2022/06/30 11:15:14;;;;;;;8.38;2.88;;;;;;;;;;6254378;28;20366;-70
2022/06/30 11:18:18;;;;;;;7.18;2.88;;;;;;;;;;6253292;28;20136;-73
2022/06/30 11:21:20;;;;;;;5.03;3.15;;;;;;;;;;6256786;28;20148;-71
2022/06/30 11:24:23;;;;;;;;;;;;;;;;;;6254691;28;20672;-71
2022/06/30 11:27:25;;;;;;;6.70;2.70;;;;;;;;;;6262510;28;19916;-73
2022/06/30 11:30:30;;;;;;;39.53;30.75;;;;;;;;;;6264879;28;20076;-72
2022/06/30 11:33:33;;;;;;;118.55;87.15;;;;;;;;;;6260785;28;20053;-73
2022/06/30 11:36:36;;;;;;;9.07;3.10;;;;;;;;;;6263394;28;20289;-71
2022/06/30 11:39:37;;;;;;;9.35;3.20;;;;;;;;;;6264378;28;20065;-72
2022/06/30 11:42:39;;;;;;;6.65;2.75;;;;;;;;;;6260701;28;20045;-73
2022/06/30 11:45:41;;;;;;;;;;;;;;;;;;6260157;28;20060;-73
2022/06/30 11:48:44;;;;;;;9.70;2.80;;;;;;;;;;6264269;28;19924;-72
2022/06/30 11:51:46;;;;;;;5.82;2.50;;;;;;;;;;6268786;28;20052;-72
2022/06/30 11:54:50;;;;;;;9.43;2.60;;;;;;;;;;6262053;28;20052;-72
2022/06/30 11:57:51;;;;;;;6.93;2.67;;;;;;;;;;6260407;28;20144;-72
2022/06/30 12:00:53;;;;;;;7.95;2.80;;;;;;;;;;6260194;28;20099;-72
2022/06/30 12:03:56;;;;;;;5.68;2.30;;;;;;;;;;6259656;28;20053;-73
2022/06/30 12:06:58;;;;;;;9.90;2.63;;;;;;;;;;6259811;28;20049;-72
2022/06/30 12:09:59;;;;;;;;;;;;;;;;;;6264384;28;20125;-72
2022/06/30 12:13:03;;;;;;;8.10;2.50;;;;;;;;;;6259140;28;19924;-73
2022/06/30 12:16:05;;;;;;;6.43;2.75;;;;;;;;;;6259546;28;20049;-71
2022/06/30 12:19:08;;;;;;;6.15;2.40;;;;;;;;;;6257088;28;20065;-70
2022/06/30 12:22:10;;;;;;;5.47;2.53;;;;;;;;;;6258156;28;20112;-71
2022/06/30 12:25:12;;;;;;;;;;;;;;;;;;6265641;28;20096;-73
2022/06/30 12:28:14;;;;;;;4.93;2.92;;;;;;;;;;6243346;28;19991;-71
2022/06/30 12:31:26;;;;;;;5.55;2.25;;;;;;;;;;6254242;28;20337;-71
2022/06/30 12:34:30;;;;;;;5.28;2.22;;;;;;;;;;6262030;28;20045;-71
2022/06/30 12:37:34;;;;;;;7.13;2.75;;;;;;;;;;6258305;28;20299;-72
2022/06/30 12:40:38;;;;;;;6.15;2.60;;;;;;;;;;6262323;28;20088;-71
2022/06/30 12:43:45;;;;;;;5.85;2.28;;;;;;;;;;6261136;28;20099;-72
2022/06/30 12:46:47;;;;;;;5.95;2.40;;;;;;;;;;6249398;28;20057;-70
2022/06/30 12:49:50;;;;;;;5.10;2.58;;;;;;;;;;6262327;28;20062;-72
2022/06/30 12:52:53;;;;;;;5.65;2.63;;;;;;;;;;6255764;28;20352;-72
2022/06/30 12:56:05;;;;;;;6.00;2.13;;;;;;;;;;6252600;28;20048;-70
2022/06/30 12:59:09;;;;;;;3.85;2.05;;;;;;;;;;6257479;28;20081;-73
2022/06/30 13:02:11;;;;;;;4.72;2.55;;;;;;;;;;6260155;28;20065;-72
2022/06/30 13:05:14;;;;;;;5.07;2.45;;;;;;;;;;6252415;28;20044;-71
2022/06/30 13:08:16;;;;;;;3.53;2.17;;;;;;;;;;6261057;28;20049;-71
2022/06/30 13:11:22;;;;;;;5.38;2.30;;;;;;;;;;6256095;28;20332;-71
2022/06/30 13:14:27;;;;;;;3.53;2.00;;;;;;;;;;6258004;28;20053;-71
2022/06/30 13:17:29;;;;;;;5.78;2.58;;;;;;;;;;6251599;28;20056;-71
2022/06/30 13:20:32;;;;;;;5.63;2.15;;;;;;;;;;6251947;28;20057;-71
2022/06/30 13:23:34;;;;;;;5.20;2.40;;;;;;;;;;6256906;28;20053;-71
2022/06/30 13:26:36;;;;;;;;;;;;;;;;;;6258401;28;20095;-73
2022/06/30 13:29:37;;;;;;;5.35;2.00;;;;;;;;;;6249857;28;20326;-72
2022/06/30 13:32:39;;;;;;;6.85;2.10;;;;;;;;;;6255398;28;20213;-72
2022/06/30 13:35:42;;;;;;;4.60;2.47;;;;;;;;;;6260413;28;20146;-72
2022/06/30 13:38:44;;;;;;;5.28;2.63;;;;;;;;;;6257152;28;20045;-71
2022/06/30 13:41:46;;;;;;;5.40;2.00;;;;;;;;;;6253848;28;20056;-72
2022/06/30 13:44:47;;;;;;;4.13;2.15;;;;;;;;;;6256126;28;20056;-71
2022/06/30 13:47:49;;;;;;;6.35;2.05;;;;;;;;;;6259663;28;20337;-74
2022/06/30 13:50:53;;;;;;;5.65;2.33;;;;;;;;;;6254376;28;20053;-72
2022/06/30 13:53:55;;;;;;;10.65;2.22;;;;;;;;;;6259742;28;20050;-73
2022/06/30 13:56:56;;;;;;;;;;;;;;;;;;6258367;28;20057;-72
2022/06/30 13:59:58;;;;;;;6.95;2.53;;;;;;;;;;6256616;28;19925;-69
2022/06/30 14:03:01;;;;;;;5.68;2.10;;;;;;;;;;6256839;28;20057;-70
2022/06/30 14:06:04;;;;;;;6.18;2.03;;;;;;;;;;6252481;28;20076;-71
2022/06/30 14:09:06;;;;;;;4.03;2.10;;;;;;;;;;6249021;28;20057;-71
2022/06/30 14:12:08;;;;;;;4.60;2.17;;;;;;;;;;6247027;28;20044;-68
2022/06/30 14:15:11;;;;;;;7.35;2.00;;;;;;;;;;6255134;28;20060;-71
2022/06/30 14:18:13;;;;;;;6.28;2.20;;;;;;;;;;6250202;28;20045;-69
2022/06/30 14:21:16;;;;;;;6.10;2.40;;;;;;;;;;6256563;28;20335;-69
2022/06/30 14:24:17;;;;;;;10.90;2.47;;;;;;;;;;6255573;28;20641;-68
2022/06/30 14:27:19;;;;;;;5.50;2.30;;;;;;;;;;6255146;28;20162;-69
2022/06/30 14:30:21;;;;;;;7.30;2.13;;;;;;;;;;6252353;28;20053;-69
2022/06/30 14:33:23;;;;;;;8.73;2.50;;;;;;;;;;6250687;28;20045;-76
2022/06/30 14:36:26;;;;;;;9.00;2.65;;;;;;;;;;6253738;28;20057;-81
2022/06/30 14:39:28;;;;;;;3.95;2.08;;;;;;;;;;6251908;28;20280;-81
2022/06/30 14:42:44;;;;;;;4.38;2.20;;;;;;;;;;6243260;28;20045;-84
2022/06/30 14:45:46;;;;;;;5.93;2.13;;;;;;;;;;6252914;28;20053;-83
2022/06/30 14:48:48;;;;;;;4.20;2.50;;;;;;;;;;6255260;28;20057;-82
2022/06/30 14:51:51;;;;;;;5.75;2.35;;;;;;;;;;6261104;28;20049;-81
2022/06/30 14:54:52;;;;;;;5.72;2.47;;;;;;;;;;6257468;28;20049;-82
2022/06/30 14:57:56;;;;;;;4.35;2.35;;;;;;;;;;6253791;28;20076;-82
2022/06/30 15:00:58;;;;;;;7.20;2.35;;;;;;;;;;6258430;28;20053;-78
2022/06/30 15:03:59;;;;;;;5.43;2.30;;;;;;;;;;6256457;28;20053;-82
2022/06/30 15:07:06;;;;;;;8.35;2.40;;;;;;;;;;6256433;28;20060;-80
2022/06/30 15:10:09;;;;;;;9.15;2.40;;;;;;;;;;6250881;28;20060;-83
2022/06/30 15:13:11;;;;;;;7.93;3.28;;;;;;;;;;6252597;28;20092;-81
2022/06/30 15:16:12;;;;;;;6.32;2.20;;;;;;;;;;6250925;28;20052;-80
2022/06/30 15:19:14;;;;;;;5.05;2.40;;;;;;;;;;6257237;28;20333;-81
2022/06/30 15:25:36;;;;;;;6.70;2.40;;;;;;;;;;6258157;28;20049;-81
2022/06/30 15:28:38;;;;;;;5.33;2.43;;;;;;;;;;6254946;28;20053;-82
2022/06/30 15:31:43;;;;;;;6.93;2.35;;;;;;;;;;6263786;28;20121;-82
2022/06/30 15:34:46;;;;;;;4.68;2.50;;;;;;;;;;6265235;28;20343;-83
2022/06/30 15:37:49;;;;;;;4.25;2.38;;;;;;;;;;6262301;28;20108;-81
2022/06/30 15:40:50;;;;;;;4.05;2.28;;;;;;;;;;6259151;28;20052;-79
2022/06/30 15:43:59;;;;;;;9.35;3.05;;;;;;;;;;6259441;28;20057;-80
2022/06/30 15:47:01;;;;;;;4.82;2.35;;;;;;;;;;6253775;28;20229;-79
2022/06/30 15:50:03;;;;;;;8.63;2.42;;;;;;;;;;6260383;28;20091;-82
2022/06/30 15:53:07;;;;;;;6.82;2.53;;;;;;;;;;6257532;28;20048;-81
2022/06/30 15:56:08;;;;;;;4.90;2.58;;;;;;;;;;6255640;28;20049;-83
2022/06/30 15:59:11;;;;;;;7.73;2.10;;;;;;;;;;6257345;28;20079;-82
2022/06/30 16:02:12;;;;;;;5.78;2.45;;;;;;;;;;6253975;28;20108;-82
2022/06/30 16:05:14;;;;;;;5.17;2.30;;;;;;;;;;6257503;28;20144;-81
2022/06/30 16:08:17;;;;;;;6.65;2.47;;;;;;;;;;6260374;28;20049;-78
2022/06/30 16:11:19;;;;;;;5.53;2.53;;;;;;;;;;6262443;28;20045;-80
2022/06/30 16:14:20;;;;;;;5.53;2.92;;;;;;;;;;6257673;28;20065;-81
2022/06/30 16:17:22;;;;;;;6.93;2.47;;;;;;;;;;6260768;28;20049;-81
2022/06/30 16:20:24;;;;;;;5.68;2.70;;;;;;;;;;6257427;28;20111;-82
2022/06/30 16:23:27;;;;;;;4.43;2.35;;;;;;;;;;6256124;28;20053;-81
2022/06/30 16:26:29;;;;;;;4.28;2.67;;;;;;;;;;6252892;28;20729;-79
2022/06/30 16:29:31;;;;;;;10.48;2.55;;;;;;;;;;6254286;28;20206;-83
2022/06/30 16:32:33;;;;;;;3.63;2.17;;;;;;;;;;6256178;28;20069;-81
2022/06/30 16:35:34;;;;;;;9.18;2.53;;;;;;;;;;6252567;28;20348;-84
2022/06/30 16:38:37;;;;;;;7.05;2.55;;;;;;;;;;6251671;28;20068;-83
2022/06/30 16:41:39;;;;;;;4.80;2.63;;;;;;;;;;6259506;28;20049;-84
2022/06/30 16:44:41;;;;;;;5.25;2.78;;;;;;;;;;6257110;28;20310;-82
2022/06/30 16:47:44;;;;;;;5.35;2.35;;;;;;;;;;6257717;28;20487;-82
2022/06/30 16:50:46;;;;;;;4.75;2.25;;;;;;;;;;6252281;28;20061;-84
2022/06/30 16:53:49;;;;;;;8.25;2.70;;;;;;;;;;6260299;28;20064;-83
2022/06/30 16:56:51;;;;;;;7.10;2.40;;;;;;;;;;6259820;28;20142;-82
2022/06/30 16:59:53;;;;;;;240.52;179.90;;;;;;;;;;6261392;28;20048;-80
2022/06/30 17:02:55;;;;;;;20.45;10.50;;;;;;;;;;6258776;28;20084;-82
2022/06/30 17:05:59;;;;;;;72.25;41.75;;;;;;;;;;6258537;28;20064;-79
2022/06/30 17:09:01;;;;;;;8.10;3.75;;;;;;;;;;6255795;28;20064;-80
2022/06/30 17:12:04;;;;;;;6.10;2.72;;;;;;;;;;6257429;28;20053;-84
2022/06/30 17:15:06;;;;;;;7.90;2.45;;;;;;;;;;6252573;28;20053;-83
2022/06/30 17:18:08;;;;;;;6.57;2.75;;;;;;;;;;6256967;28;20057;-81
2022/06/30 17:21:10;;;;;;;6.90;2.80;;;;;;;;;;6257716;28;20055;-82
2022/06/30 17:24:14;;;;;;;4.47;2.30;;;;;;;;;;6255905;28;20356;-79
2022/06/30 17:27:16;;;;;;;5.00;2.60;;;;;;;;;;6255855;28;20038;-82
2022/06/30 17:30:18;;;;;;;4.88;2.55;;;;;;;;;;6251002;28;20057;-81
2022/06/30 17:33:20;;;;;;;4.45;2.70;;;;;;;;;;6254208;28;20478;-82
2022/06/30 17:36:21;;;;;;;9.90;2.80;;;;;;;;;;6255196;28;20053;-82
2022/06/30 17:39:25;;;;;;;3.20;2.20;;;;;;;;;;6255790;28;20053;-84
2022/06/30 17:42:26;;;;;;;8.15;2.78;;;;;;;;;;6256350;28;20045;-83
2022/06/30 17:45:28;;;;;;;6.40;2.50;;;;;;;;;;6253072;28;20049;-82
2022/06/30 17:48:30;;;;;;;6.43;2.70;;;;;;;;;;6256782;28;20068;-84
2022/06/30 17:51:31;;;;;;;4.32;2.40;;;;;;;;;;6254712;28;20084;-83
2022/06/30 17:54:38;;;;;;;6.75;2.50;;;;;;;;;;6260101;28;20091;-81
2022/06/30 17:57:40;;;;;;;4.00;2.45;;;;;;;;;;6255213;28;20053;-84
2022/06/30 18:00:42;;;;;;;6.10;2.80;;;;;;;;;;6256269;28;20049;-82
2022/06/30 18:03:45;;;;;;;6.65;2.88;;;;;;;;;;6255356;28;20350;-82
2022/06/30 18:13:27;;;;;;;5.70;2.60;;;;;;;;;;6248391;28;20085;-79
2022/06/30 18:16:29;;;;;;;6.25;2.42;;;;;;;;;;6251618;28;20056;-81
2022/06/30 18:19:31;;;;;;;4.72;2.55;;;;;;;;;;6245200;28;20108;-78
2022/06/30 18:22:34;;;;;;;5.10;2.20;;;;;;;;;;6249067;28;20325;-79
2022/06/30 18:25:38;;;;;;;5.93;2.58;;;;;;;;;;6248108;28;20060;-79
2022/06/30 18:28:39;;;;;;;7.97;2.40;;;;;;;;;;6245140;28;20053;-78
2022/06/30 18:31:41;;;;;;;10.38;2.65;;;;;;;;;;6248274;28;20053;-80
2022/06/30 18:34:43;;;;;;;7.22;2.90;;;;;;;;;;6249312;28;20052;-81
2022/06/30 18:37:45;;;;;;;6.93;2.47;;;;;;;;;;6255712;28;20059;-83